createdAt,value
2022-09-10T00:01:24.631Z,60.48
2022-09-10T00:03:51.623Z,60.56
2022-09-10T00:06:18.974Z,60.82
2022-09-10T00:08:46.832Z,60.61
2022-09-10T00:11:15.105Z,60.50
2022-09-10T00:13:42.644Z,60.98
2022-09-10T00:16:12.128Z,60.70
2022-09-10T00:18:40.041Z,60.70
2022-09-10T00:21:10.482Z,60.78
2022-09-10T00:23:37.135Z,61.05
2022-09-10T00:26:31.728Z,61.19
2022-09-10T00:28:59.901Z,61.08
2022-09-10T00:31:27.039Z,60.86
2022-09-10T00:33:54.865Z,60.67
2022-09-10T00:36:27.350Z,61.28
2022-09-10T00:38:55.135Z,61.12
2022-09-10T00:41:24.145Z,60.81
2022-09-10T00:43:54.929Z,60.75
2022-09-10T00:46:31.502Z,61.25
2022-09-10T00:48:59.502Z,60.96
2022-09-10T00:51:27.254Z,60.82
2022-09-10T00:53:54.416Z,61.08
2022-09-10T00:56:21.620Z,61.10
2022-09-10T00:58:49.241Z,61.43
2022-09-10T01:01:16.487Z,61.30
2022-09-10T01:03:44.064Z,61.07
2022-09-10T01:06:11.295Z,60.93
2022-09-10T01:08:38.258Z,61.24
2022-09-10T01:11:35.947Z,61.16
2022-09-10T01:14:38.779Z,60.85
2022-09-10T01:17:33.698Z,60.97
2022-09-10T01:20:28.802Z,61.25
2022-09-10T01:23:08.716Z,61.04
2022-09-10T01:25:54.007Z,61.16
2022-09-10T01:28:30.862Z,61.07
2022-09-10T01:31:05.600Z,61.17
2022-09-10T01:33:37.460Z,61.29
2022-09-10T01:36:12.637Z,61.00
2022-09-10T01:38:42.037Z,60.95
2022-09-10T01:41:10.195Z,61.17
2022-09-10T01:43:41.976Z,61.07
2022-09-10T01:46:44.542Z,61.51
2022-09-10T01:49:34.849Z,61.17
2022-09-10T01:52:01.593Z,61.27
2022-09-10T01:55:11.044Z,61.34
2022-09-10T01:57:59.366Z,61.23
2022-09-10T02:00:36.978Z,61.23
2022-09-10T02:03:05.486Z,61.40
2022-09-10T02:05:37.331Z,61.42
2022-09-10T02:08:15.054Z,61.60
2022-09-10T02:10:59.353Z,61.63
2022-09-10T02:13:30.422Z,61.73
2022-09-10T02:16:29.152Z,61.18
2022-09-10T02:18:58.074Z,61.73
2022-09-10T02:21:24.842Z,61.74
2022-09-10T02:23:57.039Z,61.78
2022-09-10T02:26:25.875Z,61.70
2022-09-10T02:28:54.589Z,61.76
2022-09-10T02:31:22.519Z,61.60
2022-09-10T02:33:49.590Z,61.77
2022-09-10T02:36:16.297Z,61.54
2022-09-10T02:38:48.647Z,61.91
2022-09-10T02:41:21.787Z,61.75
2022-09-10T02:43:48.853Z,61.87
2022-09-10T02:46:15.662Z,62.01
2022-09-10T02:48:42.422Z,61.94
2022-09-10T02:51:09.356Z,62.09
2022-09-10T02:53:38.238Z,61.88
2022-09-10T02:56:07.691Z,61.67
2022-09-10T02:58:36.439Z,61.80
2022-09-10T03:01:11.441Z,61.93
2022-09-10T03:03:39.272Z,61.70
2022-09-10T03:06:06.336Z,61.46
2022-09-10T03:08:33.291Z,61.67
2022-09-10T03:11:00.215Z,62.02
2022-09-10T03:13:28.002Z,61.89
2022-09-10T03:15:58.900Z,62.07
2022-09-10T03:18:27.902Z,62.26
2022-09-10T03:20:54.597Z,62.00
2022-09-10T03:23:27.368Z,62.06
2022-09-10T03:25:55.694Z,62.03
2022-09-10T03:28:26.391Z,61.77
2022-09-10T03:30:53.337Z,62.05
2022-09-10T03:33:21.295Z,61.80
2022-09-10T03:35:52.348Z,61.99
2022-09-10T03:38:19.101Z,61.72
2022-09-10T03:40:46.610Z,61.86
2022-09-10T03:43:13.390Z,62.12
2022-09-10T03:45:40.305Z,61.95
2022-09-10T03:48:07.029Z,61.80
2022-09-10T03:50:33.873Z,61.78
2022-09-10T03:53:03.993Z,61.88
2022-09-10T03:55:30.966Z,61.89
2022-09-10T03:57:58.279Z,61.73
2022-09-10T04:00:27.107Z,61.91
2022-09-10T04:02:53.890Z,61.87
2022-09-10T04:05:21.408Z,61.99
2022-09-10T04:07:48.897Z,62.14
2022-09-10T04:10:18.126Z,62.16
2022-09-10T04:12:45.788Z,62.42
2022-09-10T04:15:13.833Z,61.88
2022-09-10T04:17:41.035Z,62.03
2022-09-10T04:20:08.302Z,62.13
2022-09-10T04:22:35.277Z,61.93
2022-09-10T04:25:01.957Z,62.22
2022-09-10T04:27:28.825Z,62.30
2022-09-10T04:29:56.467Z,62.31
2022-09-10T04:32:23.814Z,61.95
2022-09-10T04:34:51.575Z,61.94
2022-09-10T04:37:19.552Z,61.92
2022-09-10T04:39:47.223Z,61.91
2022-09-10T04:42:15.433Z,61.94
2022-09-10T04:44:42.188Z,61.85
2022-09-10T04:47:08.929Z,62.04
2022-09-10T04:49:35.683Z,61.85
2022-09-10T04:52:02.609Z,61.93
2022-09-10T04:54:29.446Z,61.67
2022-09-10T04:56:56.925Z,61.96
2022-09-10T04:59:23.826Z,61.73
2022-09-10T05:01:51.307Z,61.58
2022-09-10T05:04:18.613Z,61.87
2022-09-10T05:06:50.411Z,61.58
2022-09-10T05:09:17.784Z,61.61
2022-09-10T05:11:44.557Z,61.90
2022-09-10T05:14:12.011Z,61.43
2022-09-10T05:16:39.325Z,61.37
2022-09-10T05:19:06.700Z,61.54
2022-09-10T05:21:41.034Z,61.75
2022-09-10T05:24:07.828Z,61.62
2022-09-10T05:26:34.614Z,61.91
2022-09-10T05:29:01.517Z,62.03
2022-09-10T05:31:28.368Z,61.53
2022-09-10T05:33:55.995Z,61.53
2022-09-10T05:36:22.762Z,61.49
2022-09-10T05:38:49.482Z,61.92
2022-09-10T05:41:16.670Z,61.72
2022-09-10T05:43:46.566Z,61.48
2022-09-10T05:46:13.622Z,61.75
2022-09-10T05:48:44.541Z,61.83
2022-09-10T05:51:12.685Z,61.60
2022-09-10T05:53:41.687Z,61.28
2022-09-10T05:56:08.580Z,61.51
2022-09-10T05:58:36.385Z,61.64
2022-09-10T06:01:04.302Z,61.27
2022-09-10T06:03:32.002Z,61.74
2022-09-10T06:06:01.024Z,61.50
2022-09-10T06:08:32.537Z,61.59
2022-09-10T06:11:05.901Z,61.56
2022-09-10T06:13:42.234Z,61.30
2022-09-10T06:16:09.652Z,61.25
2022-09-10T06:18:37.255Z,61.70
2022-09-10T06:21:12.696Z,61.45
2022-09-10T06:23:42.239Z,61.67
2022-09-10T06:26:17.294Z,61.55
2022-09-10T06:28:45.081Z,60.99
2022-09-10T06:31:17.021Z,61.08
2022-09-10T06:33:44.505Z,60.87
2022-09-10T06:36:11.443Z,61.27
2022-09-10T06:38:38.324Z,60.89
2022-09-10T06:41:08.901Z,60.87
2022-09-10T06:43:41.781Z,60.94
2022-09-10T06:49:11.433Z,61.34
2022-09-10T06:51:39.820Z,60.97
2022-09-10T06:54:09.066Z,61.16
2022-09-10T06:56:36.324Z,60.94
2022-09-10T06:59:04.506Z,61.05
2022-09-10T07:01:35.948Z,60.62
2022-09-10T07:04:02.909Z,60.30
2022-09-10T07:06:34.813Z,60.69
2022-09-10T07:09:08.253Z,60.22
2022-09-10T07:11:57.507Z,60.02
2022-09-10T07:14:24.785Z,60.23
2022-09-10T07:16:53.705Z,60.08
2022-09-10T07:19:23.650Z,60.01
2022-09-10T07:21:50.758Z,59.88
2022-09-10T07:24:18.158Z,59.97
2022-09-10T07:27:11.511Z,59.70
2022-09-10T07:29:41.246Z,60.00
2022-09-10T07:32:13.654Z,60.20
2022-09-10T07:34:43.635Z,60.04
2022-09-10T07:37:15.563Z,59.50
2022-09-10T07:39:42.643Z,59.63
2022-09-10T07:42:11.632Z,59.13
2022-09-10T07:44:39.911Z,59.16
2022-09-10T07:47:06.757Z,59.22
2022-09-10T07:49:33.562Z,59.32
2022-09-10T07:52:00.430Z,59.40
2022-09-10T07:54:32.614Z,59.78
2022-09-10T07:57:00.418Z,59.39
2022-09-10T07:59:29.175Z,59.37
2022-09-10T08:02:00.331Z,59.35
2022-09-10T08:04:36.409Z,58.92
2022-09-10T08:07:05.592Z,58.72
2022-09-10T08:09:34.411Z,58.96
2022-09-10T08:12:02.433Z,58.58
2022-09-10T08:14:30.010Z,58.52
2022-09-10T08:16:57.075Z,58.83
2022-09-10T08:19:24.618Z,58.56
2022-09-10T08:21:52.318Z,58.30
2022-09-10T08:24:28.167Z,58.54
2022-09-10T08:26:55.286Z,58.32
2022-09-10T08:29:23.222Z,58.28
2022-09-10T08:31:50.592Z,58.41
2022-09-10T08:34:27.073Z,58.09
2022-09-10T08:37:03.385Z,58.39
2022-09-10T08:39:31.977Z,58.30
2022-09-10T08:42:07.941Z,57.74
2022-09-10T08:44:49.936Z,57.66
2022-09-10T08:47:49.280Z,57.16
2022-09-10T08:50:32.178Z,56.74
2022-09-10T08:53:01.019Z,55.84
2022-09-10T08:55:34.449Z,55.52
2022-09-10T08:58:07.338Z,55.97
2022-09-10T09:00:38.241Z,55.69
2022-09-10T09:03:36.966Z,55.51
2022-09-10T09:06:05.800Z,54.73
2022-09-10T09:08:48.504Z,54.88
2022-09-10T09:11:33.452Z,54.81
2022-09-10T09:14:25.016Z,54.38
2022-09-10T09:16:53.314Z,53.94
2022-09-10T09:19:25.546Z,53.74
2022-09-10T09:21:55.088Z,53.22
2022-09-10T09:24:48.370Z,52.96
2022-09-10T09:27:18.075Z,53.26
2022-09-10T09:29:57.925Z,53.12
2022-09-10T09:32:25.102Z,52.97
2022-09-10T09:34:57.578Z,52.61
2022-09-10T09:37:30.213Z,53.04
2022-09-10T09:40:12.588Z,53.40
2022-09-10T09:42:53.190Z,52.88
2022-09-10T09:45:34.977Z,53.04
2022-09-10T09:48:02.751Z,52.39
2022-09-10T09:50:33.583Z,52.16
2022-09-10T09:53:00.296Z,51.96
2022-09-10T09:55:34.951Z,51.66
2022-09-10T09:58:26.811Z,51.69
2022-09-10T10:00:56.013Z,52.29
2022-09-10T10:03:26.987Z,52.44
2022-09-10T10:06:05.990Z,52.35
2022-09-10T10:08:37.768Z,51.73
2022-09-10T10:11:05.061Z,52.00
2022-09-10T10:13:39.266Z,52.33
2022-09-10T10:16:35.109Z,51.56
2022-09-10T10:19:02.269Z,51.43
2022-09-10T10:21:33.927Z,50.99
2022-09-10T10:24:04.237Z,50.65
2022-09-10T10:26:31.472Z,49.85
2022-09-10T10:29:07.987Z,49.74
2022-09-10T10:31:45.124Z,49.64
2022-09-10T10:34:16.541Z,50.31
2022-09-10T10:37:05.788Z,49.67
2022-09-10T10:39:57.111Z,49.14
2022-09-10T10:42:23.758Z,49.25
2022-09-10T10:45:01.032Z,49.13
2022-09-10T10:47:28.106Z,49.50
2022-09-10T10:50:01.730Z,49.05
2022-09-10T10:53:04.595Z,49.29
2022-09-10T10:56:22.544Z,49.69
2022-09-10T10:59:13.907Z,50.32
2022-09-10T11:02:23.870Z,49.86
2022-09-10T11:04:52.075Z,50.54
2022-09-10T11:07:23.442Z,50.92
2022-09-10T11:10:31.894Z,50.66
2022-09-10T11:13:05.781Z,50.64
2022-09-10T11:15:36.104Z,50.08
2022-09-10T11:18:05.829Z,49.76
2022-09-10T11:20:38.293Z,49.94
2022-09-10T11:23:26.200Z,49.67
2022-09-10T11:26:05.845Z,49.08
2022-09-10T11:28:58.609Z,49.27
2022-09-10T11:31:32.777Z,48.87
2022-09-10T11:34:12.567Z,49.30
2022-09-10T11:36:49.535Z,49.34
2022-09-10T11:39:35.592Z,49.12
2022-09-10T11:42:15.975Z,48.23
2022-09-10T11:44:45.992Z,47.85
2022-09-10T11:47:15.623Z,48.56
2022-09-10T11:49:58.298Z,47.77
2022-09-10T11:52:27.800Z,48.27
2022-09-10T11:54:54.793Z,48.44
2022-09-10T11:57:36.657Z,47.98
2022-09-10T12:00:15.981Z,47.47
2022-09-10T12:03:20.439Z,47.82
2022-09-10T12:06:00.709Z,47.37
2022-09-10T12:08:46.346Z,47.21
2022-09-10T12:11:31.767Z,47.34
2022-09-10T12:13:58.977Z,46.55
2022-09-10T12:16:46.392Z,46.13
2022-09-10T12:19:37.312Z,46.74
2022-09-10T12:22:06.552Z,46.80
2022-09-10T12:24:36.177Z,46.00
2022-09-10T12:27:05.357Z,45.54
2022-09-10T12:29:37.222Z,46.07
2022-09-10T12:32:19.215Z,46.29
2022-09-10T12:34:49.839Z,45.91
2022-09-10T12:37:34.615Z,47.00
2022-09-10T12:40:32.035Z,46.60
2022-09-10T12:43:01.820Z,46.90
2022-09-10T12:46:06.470Z,46.95
2022-09-10T12:48:35.913Z,47.06
2022-09-10T12:51:23.607Z,47.38
2022-09-10T12:54:28.624Z,48.32
2022-09-10T12:57:17.442Z,48.91
2022-09-10T13:00:13.239Z,49.26
2022-09-10T13:02:53.216Z,48.74
2022-09-10T13:05:22.620Z,48.72
2022-09-10T13:07:57.645Z,48.68
2022-09-10T13:10:27.102Z,49.08
2022-09-10T13:12:57.453Z,48.77
2022-09-10T13:15:26.810Z,48.78
2022-09-10T13:17:54.531Z,49.10
2022-09-10T13:20:21.710Z,49.38
2022-09-10T13:23:04.301Z,49.31
2022-09-10T13:25:35.528Z,49.16
2022-09-10T13:28:28.972Z,49.87
2022-09-10T13:31:02.142Z,49.47
2022-09-10T13:33:31.148Z,49.43
2022-09-10T13:36:20.574Z,49.13
2022-09-10T13:38:58.585Z,49.68
2022-09-10T13:41:53.143Z,49.55
2022-09-10T13:44:39.655Z,49.90
2022-09-10T13:47:13.421Z,50.01
2022-09-10T13:49:47.614Z,50.36
2022-09-10T13:52:16.769Z,50.79
2022-09-10T13:54:50.370Z,50.58
2022-09-10T13:57:29.978Z,50.56
2022-09-10T14:00:17.930Z,50.04
2022-09-10T14:02:47.922Z,49.74
2022-09-10T14:05:41.594Z,49.77
2022-09-10T14:08:24.005Z,50.26
2022-09-10T14:10:52.993Z,50.71
2022-09-10T14:13:28.388Z,50.50
2022-09-10T14:15:57.047Z,51.32
2022-09-10T14:18:31.941Z,51.09
2022-09-10T14:20:59.793Z,51.74
2022-09-10T14:23:26.702Z,51.69
2022-09-10T14:26:09.904Z,51.93
2022-09-10T14:28:49.248Z,52.06
2022-09-10T14:31:30.202Z,51.78
2022-09-10T14:33:58.462Z,51.11
2022-09-10T14:36:28.104Z,51.48
2022-09-10T14:39:16.911Z,51.10
2022-09-10T14:41:44.457Z,50.86
2022-09-10T14:44:23.295Z,51.68
2022-09-10T14:46:57.407Z,51.76
2022-09-10T14:49:26.804Z,51.82
2022-09-10T14:51:53.999Z,52.22
2022-09-10T14:54:20.888Z,52.21
2022-09-10T14:56:48.521Z,51.99
2022-09-10T14:59:30.513Z,52.21
2022-09-10T15:01:58.096Z,51.60
2022-09-10T15:04:29.552Z,51.49
2022-09-10T15:06:58.094Z,51.27
2022-09-10T15:09:26.402Z,50.50
2022-09-10T15:12:05.156Z,50.86
2022-09-10T15:14:33.413Z,50.54
2022-09-10T15:17:05.318Z,50.46
2022-09-10T15:19:32.534Z,50.57
2022-09-10T15:22:02.474Z,50.74
2022-09-10T15:24:29.301Z,50.79
2022-09-10T15:26:56.583Z,51.13
2022-09-10T15:29:28.601Z,51.14
2022-09-10T15:31:59.478Z,51.55
2022-09-10T15:34:26.281Z,51.46
2022-09-10T15:36:53.238Z,51.89
2022-09-10T15:39:20.205Z,52.13
2022-09-10T15:41:47.106Z,52.40
2022-09-10T15:44:14.718Z,52.24
2022-09-10T15:46:42.659Z,52.37
2022-09-10T15:49:09.433Z,52.46
2022-09-10T15:51:37.922Z,52.08
2022-09-10T15:54:05.501Z,51.10
2022-09-10T15:56:32.797Z,51.54
2022-09-10T15:58:59.596Z,51.85
2022-09-10T16:01:28.132Z,51.91
2022-09-10T16:03:57.541Z,52.37
2022-09-10T16:06:27.642Z,52.86
2022-09-10T16:08:57.361Z,52.82
2022-09-10T16:11:26.435Z,52.64
2022-09-10T16:13:55.821Z,53.01
2022-09-10T16:16:23.984Z,52.61
2022-09-10T16:18:56.519Z,51.94
2022-09-10T16:21:26.240Z,52.02
2022-09-10T16:23:54.582Z,52.24
2022-09-10T16:26:23.868Z,52.15
2022-09-10T16:28:54.871Z,51.62
2022-09-10T16:31:26.166Z,52.36
2022-09-10T16:33:55.057Z,52.14
2022-09-10T16:36:23.530Z,52.56
2022-09-10T16:38:55.943Z,52.79
2022-09-10T16:41:23.602Z,52.83
2022-09-10T16:43:50.549Z,52.88
2022-09-10T16:46:17.698Z,53.50
2022-09-10T16:48:44.670Z,53.59
2022-09-10T16:51:16.119Z,54.06
2022-09-10T16:53:44.446Z,54.35
2022-09-10T16:56:17.486Z,54.03
2022-09-10T16:58:48.434Z,54.18
2022-09-10T17:01:15.835Z,54.57
2022-09-10T17:03:49.932Z,54.68
2022-09-10T17:06:20.552Z,54.70
2022-09-10T17:08:47.802Z,54.39
2022-09-10T17:11:16.076Z,54.65
2022-09-10T17:13:42.986Z,55.06
2022-09-10T17:16:16.761Z,54.96
2022-09-10T17:18:47.574Z,54.80
2022-09-10T17:21:14.454Z,55.08
2022-09-10T17:23:41.608Z,55.04
2022-09-10T17:26:09.298Z,55.17
2022-09-10T17:28:37.096Z,55.63
2022-09-10T17:31:04.987Z,55.82
2022-09-10T17:33:31.867Z,56.04
2022-09-10T17:36:00.474Z,56.62
2022-09-10T17:38:33.132Z,56.28
2022-09-10T17:41:02.194Z,56.73
2022-09-10T17:43:31.831Z,56.61
2022-09-10T17:45:59.535Z,56.82
2022-09-10T17:48:29.054Z,57.04
2022-09-10T17:50:55.814Z,56.92
2022-09-10T17:53:24.068Z,57.44
2022-09-10T17:55:50.773Z,57.35
2022-09-10T17:58:17.629Z,57.63
2022-09-10T18:00:49.527Z,57.26
2022-09-10T18:03:17.705Z,57.52
2022-09-10T18:05:45.846Z,57.87
2022-09-10T18:08:12.777Z,58.05
2022-09-10T18:10:39.646Z,57.91
2022-09-10T18:13:10.070Z,58.04
2022-09-10T18:15:42.237Z,58.23
2022-09-10T18:18:10.477Z,58.47
2022-09-10T18:20:37.145Z,58.48
2022-09-10T18:23:04.101Z,58.58
2022-09-10T18:25:34.164Z,58.30
2022-09-10T18:28:01.737Z,58.67
2022-09-10T18:30:29.745Z,58.54
2022-09-10T18:32:56.408Z,59.21
2022-09-10T18:35:23.163Z,59.22
2022-09-10T18:37:51.786Z,58.79
2022-09-10T18:40:19.736Z,59.21
2022-09-10T18:42:48.126Z,59.14
2022-09-10T18:45:14.870Z,59.32
2022-09-10T18:47:45.273Z,58.93
2022-09-10T18:50:13.403Z,59.43
2022-09-10T18:52:40.307Z,59.15
2022-09-10T18:55:07.529Z,59.58
2022-09-10T18:57:34.230Z,59.57
2022-09-10T19:00:01.130Z,59.28
2022-09-10T19:02:27.873Z,59.55
2022-09-10T19:05:10.855Z,59.69
2022-09-10T19:07:38.912Z,59.33
2022-09-10T19:10:07.141Z,59.35
2022-09-10T19:12:34.300Z,59.46
2022-09-10T19:15:01.002Z,59.83
2022-09-10T19:17:27.885Z,59.73
2022-09-10T19:19:54.517Z,60.05
2022-09-10T19:22:21.301Z,59.91
2022-09-10T19:24:54.936Z,60.04
2022-09-10T19:27:23.515Z,60.46
2022-09-10T19:29:50.483Z,60.42
2022-09-10T19:32:19.760Z,60.80
2022-09-10T19:34:50.174Z,60.83
2022-09-10T19:37:17.328Z,60.37
2022-09-10T19:39:44.600Z,60.57
2022-09-10T19:42:12.664Z,60.52
2022-09-10T19:44:39.386Z,60.50
2022-09-10T19:47:06.233Z,60.83
2022-09-10T19:49:34.173Z,61.04
2022-09-10T19:52:01.196Z,60.83
2022-09-10T19:54:28.592Z,61.19
2022-09-10T19:56:56.566Z,60.92
2022-09-10T19:59:23.303Z,61.23
2022-09-10T20:01:50.140Z,61.41
2022-09-10T20:04:17.068Z,61.18
2022-09-10T20:06:45.894Z,61.25
2022-09-10T20:09:13.069Z,61.15
2022-09-10T20:11:39.948Z,61.00
2022-09-10T20:14:10.019Z,60.92
2022-09-10T20:16:38.701Z,60.75
2022-09-10T20:19:06.547Z,60.71
2022-09-10T20:21:34.204Z,60.71
2022-09-10T20:24:00.970Z,60.64
2022-09-10T20:26:30.015Z,60.75
2022-09-10T20:28:59.190Z,60.88
2022-09-10T20:31:27.783Z,61.13
2022-09-10T20:33:56.549Z,60.81
2022-09-10T20:36:25.226Z,60.96
2022-09-10T20:38:53.311Z,61.14
2022-09-10T20:41:20.444Z,61.01
2022-09-10T20:43:54.101Z,60.86
2022-09-10T20:46:22.212Z,60.93
2022-09-10T20:48:51.496Z,60.97
2022-09-10T20:51:20.574Z,61.37
2022-09-10T20:53:47.709Z,61.31
2022-09-10T20:56:17.929Z,61.37
2022-09-10T20:58:45.558Z,61.48
2022-09-10T21:01:21.351Z,61.54
2022-09-10T21:03:50.258Z,61.52
2022-09-10T21:06:19.557Z,61.10
2022-09-10T21:08:47.928Z,61.56
2022-09-10T21:11:17.084Z,61.65
2022-09-10T21:13:49.788Z,61.30
2022-09-10T21:16:23.219Z,61.50
2022-09-10T21:18:54.795Z,61.65
2022-09-10T21:21:25.733Z,61.53
2022-09-10T21:23:56.495Z,61.60
2022-09-10T21:26:25.869Z,61.66
2022-09-10T21:28:58.025Z,61.60
2022-09-10T21:31:27.259Z,61.38
2022-09-10T21:34:00.671Z,61.29
2022-09-10T21:36:30.712Z,61.54
2022-09-10T21:38:59.883Z,61.24
2022-09-10T21:41:36.058Z,61.71
2022-09-10T21:44:05.252Z,61.82
2022-09-10T21:46:32.420Z,61.85
2022-09-10T21:48:59.686Z,61.96
2022-09-10T21:51:26.973Z,61.65
2022-09-10T21:53:55.003Z,61.97
2022-09-10T21:56:22.803Z,61.50
2022-09-10T21:58:52.680Z,61.87
2022-09-10T22:01:24.959Z,61.93
2022-09-10T22:03:53.428Z,62.02
2022-09-10T22:06:25.187Z,61.96
2022-09-10T22:09:01.874Z,61.63
2022-09-10T22:11:42.998Z,61.80
2022-09-10T22:14:22.343Z,61.73
2022-09-10T22:16:49.963Z,62.13
2022-09-10T22:19:22.679Z,62.00
2022-09-10T22:21:50.423Z,62.05
2022-09-10T22:24:22.467Z,62.04
2022-09-10T22:26:50.042Z,61.68
2022-09-10T22:29:18.804Z,61.78
2022-09-10T22:31:46.305Z,61.78
2022-09-10T22:34:15.141Z,61.68
2022-09-10T22:36:44.030Z,61.87
2022-09-10T22:39:16.687Z,62.03
2022-09-10T22:41:45.132Z,62.14
2022-09-10T22:44:12.350Z,61.87
2022-09-10T22:46:40.079Z,62.12
2022-09-10T22:49:07.467Z,61.61
2022-09-10T22:51:37.006Z,61.89
2022-09-10T22:54:04.763Z,61.79
2022-09-10T22:56:31.823Z,62.25
2022-09-10T22:58:59.691Z,61.77
2022-09-10T23:01:29.418Z,62.17
2022-09-10T23:03:57.452Z,61.70
2022-09-10T23:06:26.426Z,61.97
2022-09-10T23:08:55.213Z,61.55
2022-09-10T23:11:26.758Z,61.74
2022-09-10T23:14:19.898Z,61.67
2022-09-10T23:16:48.532Z,61.69
2022-09-10T23:19:17.910Z,61.38
2022-09-10T23:21:47.072Z,61.79
2022-09-10T23:24:15.768Z,61.80
2022-09-10T23:26:43.239Z,61.63
2022-09-10T23:29:10.420Z,61.57
2022-09-10T23:31:38.308Z,61.75
2022-09-10T23:34:07.950Z,61.55
2022-09-10T23:36:37.774Z,61.51
2022-09-10T23:39:07.214Z,61.53
2022-09-10T23:41:34.335Z,61.94
2022-09-10T23:44:01.370Z,61.77
2022-09-10T23:46:28.095Z,61.50
2022-09-10T23:48:54.815Z,61.68
2022-09-10T23:51:22.220Z,61.63
2022-09-10T23:53:49.672Z,61.82
2022-09-10T23:56:19.465Z,61.67
2022-09-10T23:58:46.653Z,61.77
